sensor_id;sensor_type;location;lat;lon;timestamp;temperature;humidity
67141;DHT22;54058;52.010;5.546;2023-07-29T00:00:51;19.20;88.30
67141;DHT22;54058;52.010;5.546;2023-07-29T00:03:17;19.20;88.40
67141;DHT22;54058;52.010;5.546;2023-07-29T00:05:42;19.20;88.40
67141;DHT22;54058;52.010;5.546;2023-07-29T00:08:08;19.20;88.50
67141;DHT22;54058;52.010;5.546;2023-07-29T00:10:36;19.20;88.50
67141;DHT22;54058;52.010;5.546;2023-07-29T00:13:03;19.20;88.50
67141;DHT22;54058;52.010;5.546;2023-07-29T00:15:28;19.10;88.50
67141;DHT22;54058;52.010;5.546;2023-07-29T00:17:54;19.10;88.50
67141;DHT22;54058;52.010;5.546;2023-07-29T00:20:19;19.10;88.70
67141;DHT22;54058;52.010;5.546;2023-07-29T00:22:45;19.10;88.80
67141;DHT22;54058;52.010;5.546;2023-07-29T00:25:10;19.00;88.90
67141;DHT22;54058;52.010;5.546;2023-07-29T00:27:36;19.10;89.00
67141;DHT22;54058;52.010;5.546;2023-07-29T00:30:02;19.10;89.00
67141;DHT22;54058;52.010;5.546;2023-07-29T00:32:29;19.00;88.80
67141;DHT22;54058;52.010;5.546;2023-07-29T00:34:55;19.00;89.00
67141;DHT22;54058;52.010;5.546;2023-07-29T00:37:21;19.00;89.30
67141;DHT22;54058;52.010;5.546;2023-07-29T00:39:46;19.00;89.30
67141;DHT22;54058;52.010;5.546;2023-07-29T00:42:12;19.00;89.20
67141;DHT22;54058;52.010;5.546;2023-07-29T00:44:38;19.00;89.20
67141;DHT22;54058;52.010;5.546;2023-07-29T00:47:05;19.00;89.20
67141;DHT22;54058;52.010;5.546;2023-07-29T00:49:31;19.00;89.30
67141;DHT22;54058;52.010;5.546;2023-07-29T00:51:57;19.00;89.30
67141;DHT22;54058;52.010;5.546;2023-07-29T00:54:23;19.00;89.40
67141;DHT22;54058;52.010;5.546;2023-07-29T00:56:49;19.00;89.40
67141;DHT22;54058;52.010;5.546;2023-07-29T00:59:15;19.00;89.40
67141;DHT22;54058;52.010;5.546;2023-07-29T01:01:41;19.00;89.50
67141;DHT22;54058;52.010;5.546;2023-07-29T01:04:07;19.00;89.50
67141;DHT22;54058;52.010;5.546;2023-07-29T01:09:57;19.00;89.60
67141;DHT22;54058;52.010;5.546;2023-07-29T01:15:04;19.00;89.80
67141;DHT22;54058;52.010;5.546;2023-07-29T01:17:38;18.90;89.60
67141;DHT22;54058;52.010;5.546;2023-07-29T01:20:09;19.00;89.70
67141;DHT22;54058;52.010;5.546;2023-07-29T01:22:36;18.90;89.70
67141;DHT22;54058;52.010;5.546;2023-07-29T01:25:02;18.90;89.80
67141;DHT22;54058;52.010;5.546;2023-07-29T01:27:28;18.90;90.60
67141;DHT22;54058;52.010;5.546;2023-07-29T01:29:55;18.90;90.80
67141;DHT22;54058;52.010;5.546;2023-07-29T01:32:42;19.00;89.80
67141;DHT22;54058;52.010;5.546;2023-07-29T01:37:34;19.10;89.90
67141;DHT22;54058;52.010;5.546;2023-07-29T01:40:03;19.10;89.90
67141;DHT22;54058;52.010;5.546;2023-07-29T01:42:30;19.10;89.80
67141;DHT22;54058;52.010;5.546;2023-07-29T01:44:56;19.20;89.90
67141;DHT22;54058;52.010;5.546;2023-07-29T01:47:22;19.20;89.90
67141;DHT22;54058;52.010;5.546;2023-07-29T01:49:48;19.20;89.90
67141;DHT22;54058;52.010;5.546;2023-07-29T01:52:14;19.20;90.00
67141;DHT22;54058;52.010;5.546;2023-07-29T01:54:39;19.20;90.00
67141;DHT22;54058;52.010;5.546;2023-07-29T01:57:05;19.20;90.00
67141;DHT22;54058;52.010;5.546;2023-07-29T01:59:30;19.20;90.00
67141;DHT22;54058;52.010;5.546;2023-07-29T02:01:56;19.20;90.00
67141;DHT22;54058;52.010;5.546;2023-07-29T02:04:22;19.20;90.00
67141;DHT22;54058;52.010;5.546;2023-07-29T02:06:47;19.20;90.00
67141;DHT22;54058;52.010;5.546;2023-07-29T02:09:13;19.10;90.10
67141;DHT22;54058;52.010;5.546;2023-07-29T02:11:38;19.10;90.10
67141;DHT22;54058;52.010;5.546;2023-07-29T02:14:04;19.10;90.10
67141;DHT22;54058;52.010;5.546;2023-07-29T02:16:30;19.20;90.20
67141;DHT22;54058;52.010;5.546;2023-07-29T02:18:55;19.20;90.20
67141;DHT22;54058;52.010;5.546;2023-07-29T02:21:21;19.20;90.20
67141;DHT22;54058;52.010;5.546;2023-07-29T02:23:47;19.20;90.30
67141;DHT22;54058;52.010;5.546;2023-07-29T02:26:12;19.20;90.30
67141;DHT22;54058;52.010;5.546;2023-07-29T02:28:38;19.20;90.30
67141;DHT22;54058;52.010;5.546;2023-07-29T02:31:23;19.20;90.30
67141;DHT22;54058;52.010;5.546;2023-07-29T02:33:49;19.20;90.50
67141;DHT22;54058;52.010;5.546;2023-07-29T02:36:15;19.20;90.30
67141;DHT22;54058;52.010;5.546;2023-07-29T02:38:41;19.20;90.30
67141;DHT22;54058;52.010;5.546;2023-07-29T02:41:08;19.20;90.40
67141;DHT22;54058;52.010;5.546;2023-07-29T02:43:35;19.20;90.40
67141;DHT22;54058;52.010;5.546;2023-07-29T02:46:01;19.20;90.60
67141;DHT22;54058;52.010;5.546;2023-07-29T02:48:28;19.10;90.40
67141;DHT22;54058;52.010;5.546;2023-07-29T02:50:54;19.20;90.50
67141;DHT22;54058;52.010;5.546;2023-07-29T02:53:20;19.10;90.50
67141;DHT22;54058;52.010;5.546;2023-07-29T02:55:45;19.10;90.50
67141;DHT22;54058;52.010;5.546;2023-07-29T02:58:11;19.00;90.40
67141;DHT22;54058;52.010;5.546;2023-07-29T03:00:36;19.00;90.40
67141;DHT22;54058;52.010;5.546;2023-07-29T03:03:02;19.00;90.40
67141;DHT22;54058;52.010;5.546;2023-07-29T03:05:28;19.00;90.40
67141;DHT22;54058;52.010;5.546;2023-07-29T03:07:54;19.00;90.40
67141;DHT22;54058;52.010;5.546;2023-07-29T03:10:19;19.00;90.40
67141;DHT22;54058;52.010;5.546;2023-07-29T03:12:46;19.00;90.50
67141;DHT22;54058;52.010;5.546;2023-07-29T03:15:12;18.90;90.50
67141;DHT22;54058;52.010;5.546;2023-07-29T03:17:38;18.80;90.50
67141;DHT22;54058;52.010;5.546;2023-07-29T03:20:04;18.80;90.50
67141;DHT22;54058;52.010;5.546;2023-07-29T03:22:30;18.80;90.60
67141;DHT22;54058;52.010;5.546;2023-07-29T03:24:55;18.80;90.60
67141;DHT22;54058;52.010;5.546;2023-07-29T03:27:21;18.80;90.50
67141;DHT22;54058;52.010;5.546;2023-07-29T03:29:47;18.80;90.50
67141;DHT22;54058;52.010;5.546;2023-07-29T03:32:13;18.80;90.50
67141;DHT22;54058;52.010;5.546;2023-07-29T03:34:38;18.70;90.50
67141;DHT22;54058;52.010;5.546;2023-07-29T03:37:05;18.70;90.50
67141;DHT22;54058;52.010;5.546;2023-07-29T03:39:31;18.70;90.50
67141;DHT22;54058;52.010;5.546;2023-07-29T03:41:57;18.70;90.50
67141;DHT22;54058;52.010;5.546;2023-07-29T03:44:23;18.70;90.50
67141;DHT22;54058;52.010;5.546;2023-07-29T03:46:49;18.70;90.50
67141;DHT22;54058;52.010;5.546;2023-07-29T03:49:14;18.70;90.50
67141;DHT22;54058;52.010;5.546;2023-07-29T03:51:40;18.70;90.50
67141;DHT22;54058;52.010;5.546;2023-07-29T03:54:06;18.70;90.50
67141;DHT22;54058;52.010;5.546;2023-07-29T03:56:31;18.70;90.50
67141;DHT22;54058;52.010;5.546;2023-07-29T03:59:04;18.70;90.50
67141;DHT22;54058;52.010;5.546;2023-07-29T04:01:30;18.60;90.50
67141;DHT22;54058;52.010;5.546;2023-07-29T04:03:57;18.70;90.60
67141;DHT22;54058;52.010;5.546;2023-07-29T04:06:22;18.70;90.60
67141;DHT22;54058;52.010;5.546;2023-07-29T04:08:48;18.70;90.60
67141;DHT22;54058;52.010;5.546;2023-07-29T04:11:14;18.70;90.60
67141;DHT22;54058;52.010;5.546;2023-07-29T04:13:40;18.60;90.50
67141;DHT22;54058;52.010;5.546;2023-07-29T04:16:06;18.60;90.50
67141;DHT22;54058;52.010;5.546;2023-07-29T04:18:31;18.60;90.50
67141;DHT22;54058;52.010;5.546;2023-07-29T04:20:57;18.60;90.60
67141;DHT22;54058;52.010;5.546;2023-07-29T04:23:23;18.50;90.60
67141;DHT22;54058;52.010;5.546;2023-07-29T04:25:48;18.50;90.60
67141;DHT22;54058;52.010;5.546;2023-07-29T04:28:15;18.50;90.60
67141;DHT22;54058;52.010;5.546;2023-07-29T04:30:41;18.50;90.60
67141;DHT22;54058;52.010;5.546;2023-07-29T04:33:06;18.50;90.70
67141;DHT22;54058;52.010;5.546;2023-07-29T04:35:32;18.50;90.70
67141;DHT22;54058;52.010;5.546;2023-07-29T04:37:58;18.50;90.70
67141;DHT22;54058;52.010;5.546;2023-07-29T04:40:23;18.50;90.60
67141;DHT22;54058;52.010;5.546;2023-07-29T04:42:50;18.50;90.60
67141;DHT22;54058;52.010;5.546;2023-07-29T04:45:16;18.50;90.60
67141;DHT22;54058;52.010;5.546;2023-07-29T04:47:42;18.50;90.60
67141;DHT22;54058;52.010;5.546;2023-07-29T04:50:08;18.50;90.60
67141;DHT22;54058;52.010;5.546;2023-07-29T04:52:33;18.60;90.60
67141;DHT22;54058;52.010;5.546;2023-07-29T04:54:59;18.50;90.50
67141;DHT22;54058;52.010;5.546;2023-07-29T04:57:25;18.60;90.50
67141;DHT22;54058;52.010;5.546;2023-07-29T04:59:50;18.50;90.50
67141;DHT22;54058;52.010;5.546;2023-07-29T05:02:16;18.60;90.60
67141;DHT22;54058;52.010;5.546;2023-07-29T05:04:42;18.60;90.50
67141;DHT22;54058;52.010;5.546;2023-07-29T05:07:07;18.60;90.50
67141;DHT22;54058;52.010;5.546;2023-07-29T05:09:33;18.60;90.50
67141;DHT22;54058;52.010;5.546;2023-07-29T05:11:58;18.60;90.60
67141;DHT22;54058;52.010;5.546;2023-07-29T05:14:24;18.60;90.60
67141;DHT22;54058;52.010;5.546;2023-07-29T05:16:49;18.60;90.60
67141;DHT22;54058;52.010;5.546;2023-07-29T05:19:15;18.70;90.60
67141;DHT22;54058;52.010;5.546;2023-07-29T05:21:41;18.70;90.60
67141;DHT22;54058;52.010;5.546;2023-07-29T05:24:06;18.80;90.60
67141;DHT22;54058;52.010;5.546;2023-07-29T05:26:32;18.80;90.60
67141;DHT22;54058;52.010;5.546;2023-07-29T05:28:57;18.80;90.60
67141;DHT22;54058;52.010;5.546;2023-07-29T05:31:23;18.80;90.60
67141;DHT22;54058;52.010;5.546;2023-07-29T05:33:49;18.80;90.60
67141;DHT22;54058;52.010;5.546;2023-07-29T05:36:14;18.90;90.60
67141;DHT22;54058;52.010;5.546;2023-07-29T05:38:41;18.90;90.60
67141;DHT22;54058;52.010;5.546;2023-07-29T05:41:06;18.90;90.60
67141;DHT22;54058;52.010;5.546;2023-07-29T05:43:32;18.90;90.60
67141;DHT22;54058;52.010;5.546;2023-07-29T05:45:58;19.00;90.60
67141;DHT22;54058;52.010;5.546;2023-07-29T05:48:23;19.00;90.70
67141;DHT22;54058;52.010;5.546;2023-07-29T05:50:49;19.00;90.60
67141;DHT22;54058;52.010;5.546;2023-07-29T05:53:15;19.10;90.60
67141;DHT22;54058;52.010;5.546;2023-07-29T05:55:41;19.10;90.60
67141;DHT22;54058;52.010;5.546;2023-07-29T05:58:07;19.20;90.70
67141;DHT22;54058;52.010;5.546;2023-07-29T06:00:32;19.20;90.70
67141;DHT22;54058;52.010;5.546;2023-07-29T06:02:58;19.30;90.70
67141;DHT22;54058;52.010;5.546;2023-07-29T06:05:23;19.30;90.70
67141;DHT22;54058;52.010;5.546;2023-07-29T06:07:49;19.40;90.70
67141;DHT22;54058;52.010;5.546;2023-07-29T06:10:15;19.50;90.80
67141;DHT22;54058;52.010;5.546;2023-07-29T06:12:45;19.70;90.70
67141;DHT22;54058;52.010;5.546;2023-07-29T06:15:11;19.70;90.60
67141;DHT22;54058;52.010;5.546;2023-07-29T06:17:38;19.90;90.70
67141;DHT22;54058;52.010;5.546;2023-07-29T06:20:04;19.90;90.70
67141;DHT22;54058;52.010;5.546;2023-07-29T06:22:30;20.10;90.60
67141;DHT22;54058;52.010;5.546;2023-07-29T06:24:55;20.20;90.60
67141;DHT22;54058;52.010;5.546;2023-07-29T06:27:21;20.30;90.50
67141;DHT22;54058;52.010;5.546;2023-07-29T06:29:46;20.40;90.50
67141;DHT22;54058;52.010;5.546;2023-07-29T06:32:12;20.50;90.50
67141;DHT22;54058;52.010;5.546;2023-07-29T06:34:38;20.60;90.40
67141;DHT22;54058;52.010;5.546;2023-07-29T06:37:03;20.80;90.40
67141;DHT22;54058;52.010;5.546;2023-07-29T06:39:29;20.90;90.40
67141;DHT22;54058;52.010;5.546;2023-07-29T06:41:54;21.00;90.50
67141;DHT22;54058;52.010;5.546;2023-07-29T06:44:20;21.60;90.60
67141;DHT22;54058;52.010;5.546;2023-07-29T06:46:46;22.30;90.50
67141;DHT22;54058;52.010;5.546;2023-07-29T06:49:12;22.60;90.20
67141;DHT22;54058;52.010;5.546;2023-07-29T06:51:37;22.60;90.10
67141;DHT22;54058;52.010;5.546;2023-07-29T06:54:03;22.50;90.10
67141;DHT22;54058;52.010;5.546;2023-07-29T06:56:29;22.30;90.20
67141;DHT22;54058;52.010;5.546;2023-07-29T06:58:54;22.20;90.40
67141;DHT22;54058;52.010;5.546;2023-07-29T07:01:20;22.20;90.50
67141;DHT22;54058;52.010;5.546;2023-07-29T07:03:46;22.50;90.70
67141;DHT22;54058;52.010;5.546;2023-07-29T07:06:11;22.80;90.60
67141;DHT22;54058;52.010;5.546;2023-07-29T07:08:37;22.70;90.60
67141;DHT22;54058;52.010;5.546;2023-07-29T07:11:02;22.80;90.90
67141;DHT22;54058;52.010;5.546;2023-07-29T07:13:28;22.80;90.70
67141;DHT22;54058;52.010;5.546;2023-07-29T07:15:57;22.60;90.40
67141;DHT22;54058;52.010;5.546;2023-07-29T07:18:22;22.50;90.20
67141;DHT22;54058;52.010;5.546;2023-07-29T07:20:49;22.20;90.30
67141;DHT22;54058;52.010;5.546;2023-07-29T07:23:15;22.00;90.40
67141;DHT22;54058;52.010;5.546;2023-07-29T07:25:41;21.90;90.40
67141;DHT22;54058;52.010;5.546;2023-07-29T07:28:08;21.90;90.30
67141;DHT22;54058;52.010;5.546;2023-07-29T07:30:34;21.90;90.20
67141;DHT22;54058;52.010;5.546;2023-07-29T07:33:00;21.70;90.20
67141;DHT22;54058;52.010;5.546;2023-07-29T07:35:26;21.70;90.50
67141;DHT22;54058;52.010;5.546;2023-07-29T07:37:52;21.70;90.20
67141;DHT22;54058;52.010;5.546;2023-07-29T07:40:17;21.70;90.00
67141;DHT22;54058;52.010;5.546;2023-07-29T07:42:43;21.60;89.90
67141;DHT22;54058;52.010;5.546;2023-07-29T07:45:09;21.60;89.90
67141;DHT22;54058;52.010;5.546;2023-07-29T07:47:34;21.50;89.80
67141;DHT22;54058;52.010;5.546;2023-07-29T07:50:00;21.60;89.80
67141;DHT22;54058;52.010;5.546;2023-07-29T07:52:25;21.70;89.70
67141;DHT22;54058;52.010;5.546;2023-07-29T07:54:52;21.80;89.60
67141;DHT22;54058;52.010;5.546;2023-07-29T07:57:20;22.00;89.50
67141;DHT22;54058;52.010;5.546;2023-07-29T07:59:45;22.20;89.10
67141;DHT22;54058;52.010;5.546;2023-07-29T08:02:11;22.30;88.80
67141;DHT22;54058;52.010;5.546;2023-07-29T08:04:36;22.30;88.60
67141;DHT22;54058;52.010;5.546;2023-07-29T08:07:02;22.20;88.30
67141;DHT22;54058;52.010;5.546;2023-07-29T08:09:28;22.00;88.40
67141;DHT22;54058;52.010;5.546;2023-07-29T08:11:53;22.00;88.60
67141;DHT22;54058;52.010;5.546;2023-07-29T08:14:19;21.90;88.30
67141;DHT22;54058;52.010;5.546;2023-07-29T08:16:44;21.80;88.30
67141;DHT22;54058;52.010;5.546;2023-07-29T08:19:10;21.80;88.50
67141;DHT22;54058;52.010;5.546;2023-07-29T08:21:36;21.80;88.50
67141;DHT22;54058;52.010;5.546;2023-07-29T08:24:02;21.90;88.90
67141;DHT22;54058;52.010;5.546;2023-07-29T08:26:28;22.20;89.40
67141;DHT22;54058;52.010;5.546;2023-07-29T08:28:54;22.50;86.50
67141;DHT22;54058;52.010;5.546;2023-07-29T08:31:20;23.00;90.20
67141;DHT22;54058;52.010;5.546;2023-07-29T08:33:45;23.40;90.10
67141;DHT22;54058;52.010;5.546;2023-07-29T08:36:11;23.50;89.50
67141;DHT22;54058;52.010;5.546;2023-07-29T08:38:36;23.50;89.20
67141;DHT22;54058;52.010;5.546;2023-07-29T08:41:41;23.50;89.20
67141;DHT22;54058;52.010;5.546;2023-07-29T08:46:42;23.40;87.90
67141;DHT22;54058;52.010;5.546;2023-07-29T08:49:08;23.20;88.10
67141;DHT22;54058;52.010;5.546;2023-07-29T08:51:36;23.10;88.10
67141;DHT22;54058;52.010;5.546;2023-07-29T08:54:03;22.90;87.70
67141;DHT22;54058;52.010;5.546;2023-07-29T08:56:29;22.80;87.20
67141;DHT22;54058;52.010;5.546;2023-07-29T08:58:55;22.90;87.40
67141;DHT22;54058;52.010;5.546;2023-07-29T09:01:21;22.90;84.40
67141;DHT22;54058;52.010;5.546;2023-07-29T09:03:47;23.20;87.40
67141;DHT22;54058;52.010;5.546;2023-07-29T09:06:14;23.60;87.00
67141;DHT22;54058;52.010;5.546;2023-07-29T09:08:40;23.90;86.10
67141;DHT22;54058;52.010;5.546;2023-07-29T09:11:06;24.00;85.30
67141;DHT22;54058;52.010;5.546;2023-07-29T09:13:32;24.10;85.30
67141;DHT22;54058;52.010;5.546;2023-07-29T09:16:00;24.10;84.70
67141;DHT22;54058;52.010;5.546;2023-07-29T09:18:27;24.20;84.80
67141;DHT22;54058;52.010;5.546;2023-07-29T09:20:53;24.60;84.30
67141;DHT22;54058;52.010;5.546;2023-07-29T09:23:19;24.80;83.30
67141;DHT22;54058;52.010;5.546;2023-07-29T09:25:46;25.00;82.80
67141;DHT22;54058;52.010;5.546;2023-07-29T09:28:14;25.20;82.40
67141;DHT22;54058;52.010;5.546;2023-07-29T09:30:40;25.40;81.70
67141;DHT22;54058;52.010;5.546;2023-07-29T09:33:08;25.50;81.40
67141;DHT22;54058;52.010;5.546;2023-07-29T09:35:36;25.60;81.20
67141;DHT22;54058;52.010;5.546;2023-07-29T09:38:02;25.90;80.60
67141;DHT22;54058;52.010;5.546;2023-07-29T09:40:37;26.00;79.90
67141;DHT22;54058;52.010;5.546;2023-07-29T09:43:04;26.20;78.80
67141;DHT22;54058;52.010;5.546;2023-07-29T09:45:33;26.20;78.90
67141;DHT22;54058;52.010;5.546;2023-07-29T09:47:59;26.30;78.70
67141;DHT22;54058;52.010;5.546;2023-07-29T09:50:26;26.30;78.70
67141;DHT22;54058;52.010;5.546;2023-07-29T09:52:53;26.10;79.00
67141;DHT22;54058;52.010;5.546;2023-07-29T09:55:21;25.90;78.90
67141;DHT22;54058;52.010;5.546;2023-07-29T09:58:00;25.90;79.10
67141;DHT22;54058;52.010;5.546;2023-07-29T10:00:33;26.20;78.80
67141;DHT22;54058;52.010;5.546;2023-07-29T10:02:59;26.20;78.80
67141;DHT22;54058;52.010;5.546;2023-07-29T10:05:28;26.10;78.60
67141;DHT22;54058;52.010;5.546;2023-07-29T10:07:55;25.90;78.40
67141;DHT22;54058;52.010;5.546;2023-07-29T10:10:21;25.80;78.90
67141;DHT22;54058;52.010;5.546;2023-07-29T10:12:47;25.60;78.60
67141;DHT22;54058;52.010;5.546;2023-07-29T10:15:13;25.60;78.70
67141;DHT22;54058;52.010;5.546;2023-07-29T10:17:40;25.40;78.80
67141;DHT22;54058;52.010;5.546;2023-07-29T10:20:08;25.40;78.90
67141;DHT22;54058;52.010;5.546;2023-07-29T10:22:42;25.30;78.10
67141;DHT22;54058;52.010;5.546;2023-07-29T10:25:18;25.40;77.20
67141;DHT22;54058;52.010;5.546;2023-07-29T10:27:56;25.50;78.30
67141;DHT22;54058;52.010;5.546;2023-07-29T10:30:22;25.50;77.00
67141;DHT22;54058;52.010;5.546;2023-07-29T10:32:50;25.60;78.20
67141;DHT22;54058;52.010;5.546;2023-07-29T10:35:17;25.70;78.20
67141;DHT22;54058;52.010;5.546;2023-07-29T10:37:43;25.80;77.60
67141;DHT22;54058;52.010;5.546;2023-07-29T10:40:11;25.60;77.70
67141;DHT22;54058;52.010;5.546;2023-07-29T10:42:37;25.40;77.50
67141;DHT22;54058;52.010;5.546;2023-07-29T10:45:20;25.30;77.60
67141;DHT22;54058;52.010;5.546;2023-07-29T10:47:46;25.20;75.50
67141;DHT22;54058;52.010;5.546;2023-07-29T10:50:20;25.30;77.40
67141;DHT22;54058;52.010;5.546;2023-07-29T10:52:51;25.40;76.80
67141;DHT22;54058;52.010;5.546;2023-07-29T10:55:36;25.50;76.60
67141;DHT22;54058;52.010;5.546;2023-07-29T11:00:38;25.40;75.70
67141;DHT22;54058;52.010;5.546;2023-07-29T11:03:07;25.30;77.00
67141;DHT22;54058;52.010;5.546;2023-07-29T11:05:50;25.20;75.80
67141;DHT22;54058;52.010;5.546;2023-07-29T11:08:42;25.00;75.70
67141;DHT22;54058;52.010;5.546;2023-07-29T11:11:12;24.50;75.30
67141;DHT22;54058;52.010;5.546;2023-07-29T11:13:38;24.10;77.90
67141;DHT22;54058;52.010;5.546;2023-07-29T11:16:04;23.80;78.10
67141;DHT22;54058;52.010;5.546;2023-07-29T11:18:34;23.80;78.50
67141;DHT22;54058;52.010;5.546;2023-07-29T11:21:01;23.60;77.20
67141;DHT22;54058;52.010;5.546;2023-07-29T11:23:32;23.40;78.20
67141;DHT22;54058;52.010;5.546;2023-07-29T11:25:58;23.30;78.20
67141;DHT22;54058;52.010;5.546;2023-07-29T11:28:24;23.20;78.40
67141;DHT22;54058;52.010;5.546;2023-07-29T11:30:51;23.10;78.50
67141;DHT22;54058;52.010;5.546;2023-07-29T11:33:21;22.90;79.20
67141;DHT22;54058;52.010;5.546;2023-07-29T11:35:46;22.90;78.70
67141;DHT22;54058;52.010;5.546;2023-07-29T11:38:16;22.90;78.90
67141;DHT22;54058;52.010;5.546;2023-07-29T11:40:42;22.80;78.80
67141;DHT22;54058;52.010;5.546;2023-07-29T11:43:08;22.80;78.60
67141;DHT22;54058;52.010;5.546;2023-07-29T11:45:34;22.60;78.70
67141;DHT22;54058;52.010;5.546;2023-07-29T11:48:01;22.50;78.80
67141;DHT22;54058;52.010;5.546;2023-07-29T11:50:27;22.40;79.00
67141;DHT22;54058;52.010;5.546;2023-07-29T11:52:53;22.20;79.30
67141;DHT22;54058;52.010;5.546;2023-07-29T11:55:19;22.10;79.40
67141;DHT22;54058;52.010;5.546;2023-07-29T11:57:51;22.10;79.50
67141;DHT22;54058;52.010;5.546;2023-07-29T12:00:17;22.00;79.70
67141;DHT22;54058;52.010;5.546;2023-07-29T12:02:45;21.90;79.70
67141;DHT22;54058;52.010;5.546;2023-07-29T12:05:13;21.80;79.80
67141;DHT22;54058;52.010;5.546;2023-07-29T12:07:40;21.80;80.00
67141;DHT22;54058;52.010;5.546;2023-07-29T12:10:07;21.80;80.10
67141;DHT22;54058;52.010;5.546;2023-07-29T12:12:32;21.80;80.30
67141;DHT22;54058;52.010;5.546;2023-07-29T12:14:58;21.90;80.30
67141;DHT22;54058;52.010;5.546;2023-07-29T12:17:24;21.90;80.60
67141;DHT22;54058;52.010;5.546;2023-07-29T12:19:49;22.00;80.80
67141;DHT22;54058;52.010;5.546;2023-07-29T12:22:19;22.00;81.00
67141;DHT22;54058;52.010;5.546;2023-07-29T12:24:45;22.10;81.30
67141;DHT22;54058;52.010;5.546;2023-07-29T12:27:12;22.20;81.30
67141;DHT22;54058;52.010;5.546;2023-07-29T12:29:42;22.40;81.30
67141;DHT22;54058;52.010;5.546;2023-07-29T12:32:09;22.60;81.50
67141;DHT22;54058;52.010;5.546;2023-07-29T12:34:36;22.70;81.40
67141;DHT22;54058;52.010;5.546;2023-07-29T12:37:03;22.90;81.70
67141;DHT22;54058;52.010;5.546;2023-07-29T12:39:34;23.00;81.40
67141;DHT22;54058;52.010;5.546;2023-07-29T12:42:01;23.10;81.40
67141;DHT22;54058;52.010;5.546;2023-07-29T12:44:33;23.10;81.20
67141;DHT22;54058;52.010;5.546;2023-07-29T12:47:00;23.20;81.50
67141;DHT22;54058;52.010;5.546;2023-07-29T12:49:26;23.20;81.40
67141;DHT22;54058;52.010;5.546;2023-07-29T12:51:53;23.40;81.40
67141;DHT22;54058;52.010;5.546;2023-07-29T12:54:19;23.40;81.50
67141;DHT22;54058;52.010;5.546;2023-07-29T12:56:45;23.40;81.10
67141;DHT22;54058;52.010;5.546;2023-07-29T12:59:10;23.40;81.20
67141;DHT22;54058;52.010;5.546;2023-07-29T13:01:36;23.30;81.00
67141;DHT22;54058;52.010;5.546;2023-07-29T13:04:02;23.30;81.20
67141;DHT22;54058;52.010;5.546;2023-07-29T13:06:27;23.30;81.50
67141;DHT22;54058;52.010;5.546;2023-07-29T13:08:53;23.50;81.50
67141;DHT22;54058;52.010;5.546;2023-07-29T13:11:18;23.60;81.10
67141;DHT22;54058;52.010;5.546;2023-07-29T13:13:44;23.60;81.10
67141;DHT22;54058;52.010;5.546;2023-07-29T13:16:11;23.50;81.10
67141;DHT22;54058;52.010;5.546;2023-07-29T13:18:37;23.50;81.10
67141;DHT22;54058;52.010;5.546;2023-07-29T13:21:03;23.40;81.30
67141;DHT22;54058;52.010;5.546;2023-07-29T13:23:29;23.20;81.40
67141;DHT22;54058;52.010;5.546;2023-07-29T13:25:55;23.10;81.50
67141;DHT22;54058;52.010;5.546;2023-07-29T13:28:21;23.10;81.90
67141;DHT22;54058;52.010;5.546;2023-07-29T13:30:47;23.10;82.10
67141;DHT22;54058;52.010;5.546;2023-07-29T13:33:12;23.10;82.00
67141;DHT22;54058;52.010;5.546;2023-07-29T13:35:38;23.20;82.00
67141;DHT22;54058;52.010;5.546;2023-07-29T13:38:04;23.20;82.10
67141;DHT22;54058;52.010;5.546;2023-07-29T13:40:30;23.30;82.00
67141;DHT22;54058;52.010;5.546;2023-07-29T13:42:55;23.40;82.70
67141;DHT22;54058;52.010;5.546;2023-07-29T13:45:21;23.50;81.80
67141;DHT22;54058;52.010;5.546;2023-07-29T13:47:48;23.60;81.90
67141;DHT22;54058;52.010;5.546;2023-07-29T13:50:13;23.60;81.90
67141;DHT22;54058;52.010;5.546;2023-07-29T13:52:39;23.60;82.90
67141;DHT22;54058;52.010;5.546;2023-07-29T13:55:05;23.60;81.80
67141;DHT22;54058;52.010;5.546;2023-07-29T13:57:31;23.70;81.90
67141;DHT22;54058;52.010;5.546;2023-07-29T13:59:57;23.70;81.40
67141;DHT22;54058;52.010;5.546;2023-07-29T14:02:23;23.60;81.50
67141;DHT22;54058;52.010;5.546;2023-07-29T14:04:49;23.60;81.40
67141;DHT22;54058;52.010;5.546;2023-07-29T14:07:14;23.60;81.90
67141;DHT22;54058;52.010;5.546;2023-07-29T14:09:40;23.60;81.50
67141;DHT22;54058;52.010;5.546;2023-07-29T14:12:08;23.70;81.60
67141;DHT22;54058;52.010;5.546;2023-07-29T14:14:38;23.70;81.20
67141;DHT22;54058;52.010;5.546;2023-07-29T14:17:03;23.80;80.70
67141;DHT22;54058;52.010;5.546;2023-07-29T14:19:29;23.80;80.60
67141;DHT22;54058;52.010;5.546;2023-07-29T14:21:55;23.80;80.40
67141;DHT22;54058;52.010;5.546;2023-07-29T14:24:21;23.80;81.00
67141;DHT22;54058;52.010;5.546;2023-07-29T14:26:47;23.70;80.40
67141;DHT22;54058;52.010;5.546;2023-07-29T14:29:13;23.80;80.50
67141;DHT22;54058;52.010;5.546;2023-07-29T14:31:38;23.80;80.20
67141;DHT22;54058;52.010;5.546;2023-07-29T14:34:04;23.80;80.10
67141;DHT22;54058;52.010;5.546;2023-07-29T14:36:30;23.90;80.10
67141;DHT22;54058;52.010;5.546;2023-07-29T14:38:55;23.80;79.60
67141;DHT22;54058;52.010;5.546;2023-07-29T14:41:21;23.70;79.60
67141;DHT22;54058;52.010;5.546;2023-07-29T14:43:46;23.70;79.40
67141;DHT22;54058;52.010;5.546;2023-07-29T14:46:12;23.50;79.60
67141;DHT22;54058;52.010;5.546;2023-07-29T14:48:38;23.50;79.70
67141;DHT22;54058;52.010;5.546;2023-07-29T14:51:03;23.50;80.00
67141;DHT22;54058;52.010;5.546;2023-07-29T14:53:29;23.50;79.90
67141;DHT22;54058;52.010;5.546;2023-07-29T14:55:55;23.40;80.20
67141;DHT22;54058;52.010;5.546;2023-07-29T14:58:20;23.50;80.00
67141;DHT22;54058;52.010;5.546;2023-07-29T15:00:46;23.50;79.70
67141;DHT22;54058;52.010;5.546;2023-07-29T15:03:12;23.60;79.60
67141;DHT22;54058;52.010;5.546;2023-07-29T15:05:40;23.50;79.60
67141;DHT22;54058;52.010;5.546;2023-07-29T15:08:06;23.40;79.30
67141;DHT22;54058;52.010;5.546;2023-07-29T15:10:31;23.40;79.80
67141;DHT22;54058;52.010;5.546;2023-07-29T15:12:57;23.30;79.80
67141;DHT22;54058;52.010;5.546;2023-07-29T15:15:23;23.20;80.60
67141;DHT22;54058;52.010;5.546;2023-07-29T15:17:48;23.30;80.00
67141;DHT22;54058;52.010;5.546;2023-07-29T15:20:14;23.40;80.10
67141;DHT22;54058;52.010;5.546;2023-07-29T15:22:40;23.40;80.00
67141;DHT22;54058;52.010;5.546;2023-07-29T15:25:08;23.50;79.50
67141;DHT22;54058;52.010;5.546;2023-07-29T15:27:34;23.70;79.30
67141;DHT22;54058;52.010;5.546;2023-07-29T15:30:00;23.80;79.00
67141;DHT22;54058;52.010;5.546;2023-07-29T15:32:26;23.70;77.90
67141;DHT22;54058;52.010;5.546;2023-07-29T15:34:53;23.70;79.10
67141;DHT22;54058;52.010;5.546;2023-07-29T15:37:18;23.70;78.90
67141;DHT22;54058;52.010;5.546;2023-07-29T15:39:44;23.60;79.10